createdAt,value
2023-04-29T00:02:17.094Z,13.50
2023-04-29T00:04:43.983Z,13.50
2023-04-29T00:07:10.925Z,13.40
2023-04-29T00:09:37.614Z,13.60
2023-04-29T00:12:04.241Z,13.60
2023-04-29T00:14:30.806Z,13.50
2023-04-29T00:16:57.562Z,13.50
2023-04-29T00:19:24.161Z,13.60
2023-04-29T00:21:50.769Z,13.10
2023-04-29T00:24:17.348Z,13.00
2023-04-29T00:26:43.927Z,13.00
2023-04-29T00:29:10.732Z,12.50
2023-04-29T00:31:37.475Z,12.20
2023-04-29T00:34:04.266Z,12.10
2023-04-29T00:36:30.819Z,12.40
2023-04-29T00:38:57.435Z,12.70
2023-04-29T00:41:24.059Z,12.80
2023-04-29T00:43:50.650Z,12.80
2023-04-29T00:46:17.297Z,13.10
2023-04-29T00:48:43.941Z,13.00
2023-04-29T00:51:10.532Z,12.90
2023-04-29T00:53:37.129Z,13.00
2023-04-29T00:56:03.818Z,13.20
2023-04-29T00:58:30.406Z,13.30
2023-04-29T01:00:57.015Z,13.40
2023-04-29T01:03:23.813Z,13.30
2023-04-29T01:05:50.610Z,13.40
2023-04-29T01:08:18.573Z,13.10
2023-04-29T01:10:45.291Z,13.30
2023-04-29T01:13:11.859Z,13.40
2023-04-29T01:15:38.485Z,13.00
2023-04-29T01:18:05.162Z,13.00
2023-04-29T01:20:31.804Z,12.90
2023-04-29T01:22:58.412Z,12.60
2023-04-29T01:25:24.985Z,12.50
2023-04-29T01:27:51.581Z,12.30
2023-04-29T01:30:18.254Z,12.30
2023-04-29T01:32:44.870Z,12.50
2023-04-29T01:35:11.453Z,12.90
2023-04-29T01:37:38.038Z,13.30
2023-04-29T01:40:04.651Z,13.40
2023-04-29T01:42:31.253Z,13.30
2023-04-29T01:44:57.842Z,13.40
2023-04-29T01:47:24.460Z,13.30
2023-04-29T01:49:51.330Z,13.20
2023-04-29T01:52:18.029Z,12.50
2023-04-29T01:54:44.610Z,12.30
2023-04-29T01:57:11.209Z,12.60
2023-04-29T01:59:37.850Z,12.80
2023-04-29T02:02:04.542Z,12.80
2023-04-29T02:04:31.156Z,13.00
2023-04-29T02:06:57.751Z,13.10
2023-04-29T02:09:24.345Z,13.20
2023-04-29T02:11:50.930Z,13.20
2023-04-29T02:14:17.604Z,13.20
2023-04-29T02:16:44.255Z,13.10
2023-04-29T02:19:11.687Z,12.90
2023-04-29T02:21:38.245Z,12.70
2023-04-29T02:24:05.064Z,12.40
2023-04-29T02:26:31.620Z,12.50
2023-04-29T02:28:58.245Z,12.60
2023-04-29T02:31:24.924Z,12.60
2023-04-29T02:33:51.548Z,12.50
2023-04-29T02:36:18.136Z,11.80
2023-04-29T02:38:44.801Z,11.90
2023-04-29T02:41:11.405Z,12.20
2023-04-29T02:43:38.114Z,12.30
2023-04-29T02:46:04.845Z,12.20
2023-04-29T02:48:31.471Z,12.20
2023-04-29T02:50:58.047Z,12.30
2023-04-29T02:53:24.752Z,12.50
2023-04-29T02:55:51.351Z,12.00
2023-04-29T02:58:17.933Z,12.20
2023-04-29T03:00:44.579Z,12.30
2023-04-29T03:03:11.288Z,12.10
2023-04-29T03:05:38.026Z,12.00
2023-04-29T03:08:04.632Z,11.90
2023-04-29T03:10:31.207Z,12.10
2023-04-29T03:12:57.802Z,12.20
2023-04-29T03:15:24.426Z,12.30
2023-04-29T03:17:51.022Z,11.70
2023-04-29T03:20:17.625Z,11.40
2023-04-29T03:22:44.233Z,11.70
2023-04-29T03:25:10.845Z,11.70
2023-04-29T03:27:37.461Z,11.90
2023-04-29T03:30:04.029Z,11.80
2023-04-29T03:32:30.658Z,12.10
2023-04-29T03:34:57.492Z,12.00
2023-04-29T03:37:24.089Z,12.20
2023-04-29T03:39:50.999Z,12.30
2023-04-29T03:42:17.886Z,12.10
2023-04-29T03:44:44.472Z,12.20
2023-04-29T03:47:11.064Z,12.00
2023-04-29T03:49:38.914Z,12.10
2023-04-29T03:52:05.719Z,12.30
2023-04-29T03:54:32.323Z,12.30
2023-04-29T03:56:58.916Z,12.20
2023-04-29T03:59:25.474Z,12.20
2023-04-29T04:01:52.147Z,12.30
2023-04-29T04:04:18.856Z,12.30
2023-04-29T04:06:45.603Z,11.70
2023-04-29T04:09:12.180Z,11.60
2023-04-29T04:11:38.750Z,11.70
2023-04-29T04:14:05.326Z,11.80
2023-04-29T04:16:32.156Z,11.80
2023-04-29T04:18:58.772Z,11.70
2023-04-29T04:21:25.382Z,11.90
2023-04-29T04:23:52.002Z,12.00
2023-04-29T04:26:18.583Z,11.80
2023-04-29T04:28:45.181Z,12.10
2023-04-29T04:31:11.782Z,12.20
2023-04-29T04:33:38.437Z,12.40
2023-04-29T04:36:05.125Z,12.20
2023-04-29T04:38:31.855Z,12.50
2023-04-29T04:40:58.415Z,12.60
2023-04-29T04:43:25.008Z,12.80
2023-04-29T04:45:51.648Z,12.50
2023-04-29T04:48:18.258Z,12.60
2023-04-29T04:50:44.867Z,12.60
2023-04-29T04:53:11.796Z,12.80
2023-04-29T04:55:38.386Z,12.20
2023-04-29T04:58:05.015Z,12.40
2023-04-29T05:00:31.603Z,12.70
2023-04-29T05:02:58.564Z,12.90
2023-04-29T05:05:25.260Z,13.20
2023-04-29T05:07:52.228Z,13.10
2023-04-29T05:10:18.865Z,13.20
2023-04-29T05:12:45.465Z,13.60
2023-04-29T05:15:12.163Z,14.00
2023-04-29T05:17:38.835Z,14.30
2023-04-29T05:20:05.455Z,14.50
2023-04-29T05:22:32.060Z,14.70
2023-04-29T05:24:58.688Z,14.90
2023-04-29T05:27:25.275Z,14.90
2023-04-29T05:29:52.159Z,15.10
2023-04-29T05:32:18.944Z,15.20
2023-04-29T05:34:45.515Z,15.30
2023-04-29T05:37:12.099Z,15.50
2023-04-29T05:39:38.697Z,15.40
2023-04-29T05:42:05.270Z,14.80
2023-04-29T05:44:31.863Z,15.00
2023-04-29T05:46:58.443Z,15.10
2023-04-29T05:49:25.022Z,15.30
2023-04-29T05:51:51.658Z,15.20
2023-04-29T05:54:19.078Z,15.00
2023-04-29T05:56:45.712Z,14.70
2023-04-29T05:59:12.358Z,15.00
2023-04-29T06:01:38.929Z,15.30
2023-04-29T06:04:05.664Z,15.50
2023-04-29T06:06:32.498Z,15.40
2023-04-29T06:08:59.128Z,15.50
2023-04-29T06:11:25.716Z,15.40
2023-04-29T06:13:52.306Z,15.50
2023-04-29T06:16:18.971Z,15.80
2023-04-29T06:18:45.723Z,15.70
2023-04-29T06:21:12.318Z,15.90
2023-04-29T06:23:38.906Z,16.30
2023-04-29T06:26:05.490Z,16.60
2023-04-29T06:28:32.053Z,16.70
2023-04-29T06:30:59.186Z,16.20
2023-04-29T06:33:25.804Z,16.00
2023-04-29T06:35:52.439Z,16.20
2023-04-29T06:38:19.070Z,16.30
2023-04-29T06:40:45.756Z,16.50
2023-04-29T06:43:12.357Z,16.80
2023-04-29T06:45:38.971Z,17.00
2023-04-29T06:48:05.616Z,17.20
2023-04-29T06:50:32.286Z,16.90
2023-04-29T06:52:58.849Z,17.00
2023-04-29T06:55:25.449Z,17.30
2023-04-29T06:57:52.035Z,16.90
2023-04-29T07:00:18.595Z,16.70
2023-04-29T07:02:45.353Z,16.90
2023-04-29T07:05:12.020Z,17.00
2023-04-29T07:07:38.605Z,17.40
2023-04-29T07:10:05.219Z,17.60
2023-04-29T07:12:31.812Z,17.60
2023-04-29T07:14:58.404Z,17.40
2023-04-29T07:17:25.026Z,17.60
2023-04-29T07:19:51.963Z,16.80
2023-04-29T07:22:18.698Z,16.90
2023-04-29T07:24:45.316Z,17.10
2023-04-29T07:27:11.921Z,17.10
2023-04-29T07:29:38.525Z,17.20
2023-04-29T07:32:05.359Z,17.20
2023-04-29T07:34:32.025Z,17.50
2023-04-29T07:36:58.602Z,18.30
2023-04-29T07:39:25.184Z,18.80
2023-04-29T07:41:51.863Z,18.80
2023-04-29T07:44:18.463Z,18.00
2023-04-29T07:46:45.170Z,18.40
2023-04-29T07:49:11.859Z,19.00
2023-04-29T07:51:38.521Z,19.20
2023-04-29T07:54:05.183Z,19.10
2023-04-29T07:56:31.799Z,18.70
2023-04-29T07:58:58.502Z,18.90
2023-04-29T08:01:25.146Z,19.10
2023-04-29T08:03:52.125Z,19.00
2023-04-29T08:06:19.317Z,19.30
2023-04-29T08:08:46.033Z,19.50
2023-04-29T08:11:12.657Z,20.00
2023-04-29T08:13:39.248Z,20.20
2023-04-29T08:16:05.868Z,19.80
2023-04-29T08:18:32.526Z,19.80
2023-04-29T08:20:59.434Z,19.40
2023-04-29T08:23:26.180Z,19.50
2023-04-29T08:25:52.828Z,19.50
2023-04-29T08:28:19.726Z,19.70
2023-04-29T08:30:46.358Z,19.70
2023-04-29T08:33:13.086Z,19.70
2023-04-29T08:35:39.748Z,19.40
2023-04-29T08:38:06.659Z,19.40
2023-04-29T08:40:33.465Z,19.50
2023-04-29T08:43:00.156Z,19.40
2023-04-29T08:45:26.817Z,19.00
2023-04-29T08:47:53.791Z,19.00
2023-04-29T08:50:20.467Z,19.40
2023-04-29T08:52:47.349Z,19.70
2023-04-29T08:55:14.026Z,19.60
2023-04-29T08:57:40.734Z,19.50
2023-04-29T09:00:07.345Z,19.90
2023-04-29T09:02:33.962Z,20.30
2023-04-29T09:05:00.719Z,20.20
2023-04-29T09:07:27.394Z,20.00
2023-04-29T09:09:53.961Z,20.50
2023-04-29T09:12:20.656Z,20.40
2023-04-29T09:14:47.225Z,20.30
2023-04-29T09:17:13.841Z,20.40
2023-04-29T09:19:40.412Z,20.30
2023-04-29T09:22:07.118Z,20.80
2023-04-29T09:24:33.765Z,21.20
2023-04-29T09:27:00.484Z,21.20
2023-04-29T09:29:27.057Z,21.80
2023-04-29T09:31:53.842Z,21.20
2023-04-29T09:34:20.526Z,21.00
2023-04-29T09:36:47.143Z,21.00
2023-04-29T09:39:13.807Z,21.60
2023-04-29T09:41:40.381Z,21.90
2023-04-29T09:44:06.970Z,21.90
2023-04-29T09:46:33.608Z,22.20
2023-04-29T09:49:00.245Z,22.40
2023-04-29T09:51:26.980Z,21.90
2023-04-29T09:53:53.914Z,22.10
2023-04-29T09:56:20.496Z,22.40
2023-04-29T09:58:47.107Z,22.90
2023-04-29T10:01:13.766Z,22.30
2023-04-29T10:03:40.566Z,22.40
2023-04-29T10:06:07.261Z,22.70
2023-04-29T10:08:33.951Z,22.70
2023-04-29T10:11:00.590Z,22.90
2023-04-29T10:13:27.212Z,23.10
2023-04-29T10:15:53.819Z,23.10
2023-04-29T10:18:20.567Z,22.80
2023-04-29T10:20:47.276Z,22.40
2023-04-29T10:23:13.870Z,22.40
2023-04-29T10:25:40.520Z,22.70
2023-04-29T10:28:07.143Z,23.30
2023-04-29T10:30:33.777Z,23.50
2023-04-29T10:33:01.701Z,23.20
2023-04-29T10:35:29.468Z,23.30
2023-04-29T10:37:56.122Z,23.20
2023-04-29T10:40:22.709Z,23.00
2023-04-29T10:42:49.282Z,23.00
2023-04-29T10:45:15.984Z,23.70
2023-04-29T10:47:42.609Z,23.60
2023-04-29T10:50:09.243Z,23.30
2023-04-29T10:52:35.849Z,22.50
2023-04-29T10:55:02.452Z,22.30
2023-04-29T10:57:29.034Z,22.20
2023-04-29T10:59:55.657Z,22.00
2023-04-29T11:02:22.276Z,22.10
2023-04-29T11:04:48.963Z,22.40
2023-04-29T11:07:15.583Z,22.50
2023-04-29T11:09:42.174Z,22.70
2023-04-29T11:12:08.858Z,22.80
2023-04-29T11:14:35.580Z,22.90
2023-04-29T11:17:02.162Z,22.70
2023-04-29T11:19:28.861Z,23.80
2023-04-29T11:21:55.504Z,24.40
2023-04-29T11:24:22.088Z,24.40
2023-04-29T11:26:48.939Z,24.00
2023-04-29T11:29:15.613Z,24.30
2023-04-29T11:31:42.327Z,24.40
2023-04-29T11:34:09.059Z,24.40
2023-04-29T11:36:35.706Z,24.70
2023-04-29T11:39:02.310Z,25.00
2023-04-29T11:41:28.859Z,25.20
2023-04-29T11:43:55.381Z,25.10
2023-04-29T11:46:22.028Z,24.50
2023-04-29T11:48:48.653Z,25.00
2023-04-29T11:51:15.328Z,24.60
2023-04-29T11:53:41.930Z,23.80
2023-04-29T11:56:08.536Z,23.20
2023-04-29T11:58:35.364Z,22.70
2023-04-29T12:01:01.941Z,23.00
2023-04-29T12:03:28.627Z,23.50
2023-04-29T12:05:55.426Z,23.80
2023-04-29T12:08:22.284Z,24.30
2023-04-29T12:10:48.898Z,24.60
2023-04-29T12:13:15.539Z,24.50
2023-04-29T12:15:42.316Z,24.10
2023-04-29T12:18:09.027Z,23.80
2023-04-29T12:20:35.634Z,23.70
2023-04-29T12:23:02.261Z,24.10
2023-04-29T12:25:29.164Z,24.20
2023-04-29T12:27:55.747Z,24.70
2023-04-29T12:30:22.549Z,23.50
2023-04-29T12:32:49.179Z,23.80
2023-04-29T12:35:15.826Z,24.10
2023-04-29T12:37:42.412Z,24.50
2023-04-29T12:40:09.079Z,24.50
2023-04-29T12:42:35.729Z,25.10
2023-04-29T12:45:02.559Z,25.30
2023-04-29T12:47:29.220Z,25.20
2023-04-29T12:49:55.877Z,24.60
2023-04-29T12:52:22.786Z,25.30
2023-04-29T12:54:49.390Z,25.30
2023-04-29T12:57:16.007Z,25.00
2023-04-29T12:59:42.617Z,25.50
2023-04-29T13:02:09.374Z,24.70
2023-04-29T13:04:36.302Z,25.30
2023-04-29T13:07:07.350Z,25.50
2023-04-29T13:09:34.011Z,25.50
2023-04-29T13:12:00.618Z,25.50
2023-04-29T13:14:27.189Z,25.30
2023-04-29T13:16:53.892Z,24.60
2023-04-29T13:19:38.433Z,24.40
2023-04-29T13:22:07.146Z,24.10
2023-04-29T13:24:33.791Z,24.20
2023-04-29T13:27:00.374Z,24.40
2023-04-29T13:29:27.009Z,24.40
2023-04-29T13:31:53.612Z,23.90
2023-04-29T13:34:20.226Z,23.70
2023-04-29T13:36:46.807Z,23.40
2023-04-29T13:39:14.896Z,23.20
2023-04-29T13:41:45.525Z,23.50
2023-04-29T13:44:23.915Z,23.90
2023-04-29T13:46:57.523Z,23.70
2023-04-29T13:49:55.960Z,22.80
2023-04-29T13:54:59.476Z,22.30
2023-04-29T13:58:16.550Z,22.20
2023-04-29T14:00:31.570Z,21.80
2023-04-29T14:05:27.565Z,21.90
2023-04-29T14:07:54.218Z,22.00
2023-04-29T14:10:20.815Z,21.90
2023-04-29T14:12:47.384Z,21.80
2023-04-29T14:15:13.978Z,21.70
2023-04-29T14:17:40.748Z,21.70
2023-04-29T14:20:07.559Z,21.40
2023-04-29T14:22:34.198Z,21.60
2023-04-29T14:25:00.758Z,21.60
2023-04-29T14:27:27.379Z,21.50
2023-04-29T14:29:53.949Z,21.60
2023-04-29T14:32:20.640Z,21.60
2023-04-29T14:34:47.306Z,21.50
2023-04-29T14:37:13.941Z,21.40
2023-04-29T14:39:40.580Z,21.20
2023-04-29T14:42:07.149Z,21.40
2023-04-29T14:44:33.727Z,21.40
2023-04-29T14:47:00.350Z,21.60
2023-04-29T14:49:27.768Z,21.30
2023-04-29T14:51:55.920Z,21.60
2023-04-29T14:54:22.497Z,21.80
2023-04-29T14:56:49.072Z,22.10
2023-04-29T14:59:15.673Z,22.20
2023-04-29T15:01:42.304Z,22.50
2023-04-29T15:04:08.925Z,22.80
2023-04-29T15:06:35.560Z,22.60
2023-04-29T15:09:02.173Z,22.40
2023-04-29T15:11:28.807Z,22.70
2023-04-29T15:13:55.392Z,23.00
2023-04-29T15:16:22.081Z,23.70
2023-04-29T15:18:48.682Z,24.10
2023-04-29T15:21:15.272Z,24.30
2023-04-29T15:23:41.932Z,24.30
2023-04-29T15:26:08.516Z,24.60
2023-04-29T15:28:35.101Z,24.70
2023-04-29T15:31:01.672Z,25.00
2023-04-29T15:33:28.311Z,24.90
2023-04-29T15:35:54.979Z,24.70
2023-04-29T15:38:21.773Z,24.50
2023-04-29T15:40:48.357Z,24.50
2023-04-29T15:43:15.220Z,24.40
2023-04-29T15:45:41.820Z,24.40
2023-04-29T15:48:08.545Z,24.30
2023-04-29T15:50:35.199Z,24.10
2023-04-29T15:53:01.809Z,24.30
2023-04-29T15:55:28.913Z,24.40
2023-04-29T15:57:55.538Z,24.40
2023-04-29T16:00:22.142Z,24.10
2023-04-29T16:02:48.811Z,23.90
2023-04-29T16:05:15.478Z,23.60
2023-04-29T16:07:42.050Z,23.60
2023-04-29T16:10:08.691Z,23.40
2023-04-29T16:12:35.301Z,23.50
2023-04-29T16:15:01.911Z,23.30
2023-04-29T16:17:28.544Z,23.40
2023-04-29T16:19:55.375Z,22.60
2023-04-29T16:22:22.175Z,22.80
2023-04-29T16:24:49.925Z,22.80
2023-04-29T16:27:16.649Z,22.80
2023-04-29T16:29:43.261Z,22.50
2023-04-29T16:32:09.877Z,22.40
2023-04-29T16:34:36.431Z,22.40
2023-04-29T16:37:03.016Z,22.20
2023-04-29T16:39:29.663Z,21.90
2023-04-29T16:41:56.590Z,21.90
2023-04-29T16:44:23.215Z,22.20
2023-04-29T16:46:49.927Z,21.90
2023-04-29T16:49:16.502Z,22.10
2023-04-29T16:51:43.092Z,22.10
2023-04-29T16:54:09.688Z,22.10
2023-04-29T16:56:36.622Z,22.20
2023-04-29T16:59:03.384Z,22.40
2023-04-29T17:01:30.040Z,22.30
2023-04-29T17:03:56.640Z,22.20
2023-04-29T17:06:23.468Z,22.40
2023-04-29T17:08:51.444Z,22.10
2023-04-29T17:11:18.289Z,21.90
2023-04-29T17:13:44.927Z,22.00
2023-04-29T17:16:11.564Z,21.70
2023-04-29T17:18:38.556Z,22.00
2023-04-29T17:21:05.115Z,21.90
2023-04-29T17:23:31.719Z,21.80
2023-04-29T17:25:58.362Z,21.50
2023-04-29T17:28:24.947Z,21.40
2023-04-29T17:30:51.546Z,21.30
2023-04-29T17:33:18.161Z,21.20
2023-04-29T17:35:44.759Z,21.00
2023-04-29T17:38:11.523Z,21.10
2023-04-29T17:40:38.124Z,21.00
2023-04-29T17:43:04.703Z,20.90
2023-04-29T17:45:31.326Z,20.90
2023-04-29T17:47:58.205Z,20.90
2023-04-29T17:50:24.971Z,21.20
2023-04-29T17:52:51.626Z,21.00
2023-04-29T17:55:18.244Z,20.90
2023-04-29T17:57:44.815Z,20.80
2023-04-29T18:00:11.478Z,20.70
2023-04-29T18:02:38.129Z,20.30
2023-04-29T18:05:04.763Z,20.40
2023-04-29T18:07:31.463Z,20.50
2023-04-29T18:09:58.359Z,20.70
2023-04-29T18:12:25.246Z,21.00
2023-04-29T18:14:52.124Z,20.80
2023-04-29T18:17:18.739Z,20.60
2023-04-29T18:19:45.318Z,20.40
2023-04-29T18:22:11.912Z,20.50
2023-04-29T18:24:38.480Z,20.70
2023-04-29T18:27:05.115Z,20.60
2023-04-29T18:29:31.678Z,20.50
2023-04-29T18:31:58.418Z,20.50
2023-04-29T18:34:25.081Z,20.40
2023-04-29T18:36:51.672Z,20.30
2023-04-29T18:39:18.261Z,20.00
2023-04-29T18:41:44.827Z,19.60
2023-04-29T18:44:11.413Z,19.30
2023-04-29T18:46:38.030Z,19.00
2023-04-29T18:49:04.636Z,19.30
2023-04-29T18:51:31.244Z,19.50
2023-04-29T18:53:57.826Z,19.40
2023-04-29T18:56:24.440Z,18.60
2023-04-29T18:58:51.005Z,18.70
2023-04-29T19:01:17.632Z,18.80
2023-04-29T19:03:44.295Z,18.60
2023-04-29T19:06:10.958Z,18.20
2023-04-29T19:08:37.590Z,18.10
2023-04-29T19:11:04.167Z,18.20
2023-04-29T19:13:30.756Z,17.70
2023-04-29T19:15:57.343Z,17.10
2023-04-29T19:18:24.020Z,17.30
2023-04-29T19:20:50.615Z,17.70
2023-04-29T19:23:17.185Z,17.90
2023-04-29T19:25:43.793Z,17.40
2023-04-29T19:28:10.522Z,17.20
2023-04-29T19:30:37.214Z,17.10
2023-04-29T19:33:03.828Z,17.30
2023-04-29T19:35:30.455Z,17.60
2023-04-29T19:37:57.073Z,17.60
2023-04-29T19:40:23.665Z,17.60
2023-04-29T19:42:50.249Z,17.10
2023-04-29T19:45:16.845Z,17.00
2023-04-29T19:47:43.484Z,16.90
2023-04-29T19:50:10.324Z,16.60
2023-04-29T19:52:37.181Z,16.70
2023-04-29T19:55:03.795Z,16.60
2023-04-29T19:57:30.376Z,17.00
2023-04-29T19:59:57.292Z,17.20
2023-04-29T20:02:24.145Z,17.30
2023-04-29T20:04:50.804Z,17.10
2023-04-29T20:07:17.714Z,17.10
2023-04-29T20:09:44.392Z,16.70
2023-04-29T20:12:10.984Z,16.20
2023-04-29T20:14:37.557Z,16.30
2023-04-29T20:17:04.446Z,16.40
2023-04-29T20:19:31.019Z,16.70
2023-04-29T20:21:57.610Z,16.30
2023-04-29T20:24:24.361Z,16.50
2023-04-29T20:26:50.964Z,16.50
2023-04-29T20:29:17.557Z,16.70
2023-04-29T20:31:44.208Z,16.40
2023-04-29T20:34:10.846Z,16.90
2023-04-29T20:36:38.492Z,17.30
2023-04-29T20:39:05.058Z,17.30
2023-04-29T20:41:31.669Z,17.40
2023-04-29T20:43:58.252Z,17.40
2023-04-29T20:46:26.123Z,17.40
2023-04-29T20:48:52.841Z,17.10
2023-04-29T20:51:19.468Z,16.70
2023-04-29T20:53:46.566Z,16.70
2023-04-29T20:56:13.162Z,16.10
2023-04-29T20:58:39.779Z,16.10
2023-04-29T21:01:06.409Z,16.60
2023-04-29T21:03:33.093Z,16.60
2023-04-29T21:05:59.687Z,16.50
2023-04-29T21:08:26.308Z,16.60
2023-04-29T21:10:52.885Z,16.40
2023-04-29T21:13:19.605Z,16.00
2023-04-29T21:15:46.259Z,16.00
2023-04-29T21:18:12.890Z,16.20
2023-04-29T21:20:39.498Z,16.20
2023-04-29T21:23:06.237Z,16.10
2023-04-29T21:25:32.796Z,16.30
2023-04-29T21:27:59.411Z,16.30
2023-04-29T21:30:26.005Z,16.00
2023-04-29T21:32:52.674Z,16.00
2023-04-29T21:35:19.293Z,16.20
2023-04-29T21:37:45.893Z,16.30
2023-04-29T21:40:12.526Z,15.60
2023-04-29T21:42:39.291Z,15.50
2023-04-29T21:45:05.896Z,15.70
2023-04-29T21:47:32.591Z,15.60
2023-04-29T21:49:59.189Z,15.40
2023-04-29T21:52:25.773Z,15.20
2023-04-29T21:54:52.510Z,15.40
2023-04-29T21:57:23.987Z,15.70
2023-04-29T21:59:55.974Z,15.80
2023-04-29T22:02:22.784Z,15.40
2023-04-29T22:04:49.480Z,15.30
2023-04-29T22:07:16.082Z,15.40
2023-04-29T22:09:42.666Z,15.00
2023-04-29T22:12:10.526Z,14.70
2023-04-29T22:14:37.146Z,14.60
2023-04-29T22:17:03.764Z,14.40
2023-04-29T22:19:30.354Z,14.10
2023-04-29T22:21:56.983Z,14.50
2023-04-29T22:24:23.579Z,14.70
2023-04-29T22:26:50.290Z,14.70
2023-04-29T22:29:16.885Z,14.60
2023-04-29T22:31:43.502Z,14.00
2023-04-29T22:34:10.116Z,13.50
2023-04-29T22:36:36.671Z,13.60
2023-04-29T22:39:03.285Z,13.90
2023-04-29T22:41:29.901Z,13.70
2023-04-29T22:43:56.475Z,14.10
2023-04-29T22:46:23.127Z,14.40
2023-04-29T22:48:49.713Z,14.40
2023-04-29T22:51:16.377Z,13.70
2023-04-29T22:53:42.978Z,13.40
2023-04-29T22:56:09.554Z,13.60
2023-04-29T22:58:36.218Z,13.90
2023-04-29T23:01:02.839Z,14.00
2023-04-29T23:03:29.652Z,14.00
2023-04-29T23:05:56.273Z,13.90
2023-04-29T23:08:22.903Z,14.20
2023-04-29T23:10:49.561Z,14.30
2023-04-29T23:13:16.263Z,14.40
2023-04-29T23:15:42.846Z,14.50
2023-04-29T23:18:09.570Z,14.20
2023-04-29T23:20:36.271Z,14.30
2023-04-29T23:23:02.827Z,14.30
2023-04-29T23:25:29.443Z,14.20
2023-04-29T23:27:56.092Z,13.70
2023-04-29T23:30:22.691Z,14.00
2023-04-29T23:32:49.328Z,14.00
2023-04-29T23:35:15.974Z,13.90
2023-04-29T23:37:42.611Z,13.40
2023-04-29T23:40:09.241Z,13.60
2023-04-29T23:42:35.876Z,13.30
2023-04-29T23:45:02.464Z,13.10
2023-04-29T23:47:29.100Z,13.10
2023-04-29T23:49:55.890Z,13.50
2023-04-29T23:52:22.818Z,13.90
2023-04-29T23:54:49.432Z,14.00
2023-04-29T23:57:16.020Z,13.40
2023-04-29T23:59:42.618Z,13.70
